createdAt,value
2023-04-02T00:02:30.513Z,11.70
2023-04-02T00:05:19.771Z,13.35
2023-04-02T00:07:52.133Z,13.68
2023-04-02T00:10:36.974Z,12.82
2023-04-02T00:13:03.520Z,12.60
2023-04-02T00:15:30.801Z,13.45
2023-04-02T00:17:58.863Z,10.20
2023-04-02T00:20:27.575Z,13.07
2023-04-02T00:22:56.187Z,10.15
2023-04-02T00:25:25.742Z,9.48
2023-04-02T00:27:52.731Z,10.98
2023-04-02T00:30:19.371Z,11.77
2023-04-02T00:32:46.349Z,9.55
2023-04-02T00:35:25.552Z,11.35
2023-04-02T00:37:52.847Z,10.77
2023-04-02T00:40:31.848Z,10.57
2023-04-02T00:43:01.168Z,14.23
2023-04-02T00:45:32.075Z,14.98
2023-04-02T00:48:13.195Z,15.60
2023-04-02T00:50:42.836Z,16.17
2023-04-02T00:53:24.452Z,15.02
2023-04-02T00:55:51.675Z,15.10
2023-04-02T00:58:30.037Z,15.70
2023-04-02T01:00:56.984Z,15.75
2023-04-02T01:03:30.085Z,15.32
2023-04-02T01:06:12.667Z,14.93
2023-04-02T01:09:02.327Z,13.43
2023-04-02T01:12:06.437Z,14.23
2023-04-02T01:15:12.088Z,14.50
2023-04-02T01:17:38.621Z,13.57
2023-04-02T01:20:34.366Z,12.88
2023-04-02T01:23:10.181Z,13.88
2023-04-02T01:25:57.139Z,14.70
2023-04-02T01:28:35.623Z,13.80
2023-04-02T01:31:03.980Z,14.43
2023-04-02T01:33:34.313Z,14.60
2023-04-02T01:36:12.205Z,13.00
2023-04-02T01:39:02.234Z,11.63
2023-04-02T01:41:36.412Z,9.82
2023-04-02T01:44:49.350Z,10.55
2023-04-02T01:47:19.461Z,10.07
2023-04-02T01:49:46.531Z,9.82
2023-04-02T01:52:19.518Z,9.52
2023-04-02T01:54:47.775Z,8.55
2023-04-02T01:57:14.602Z,9.00
2023-04-02T01:59:41.285Z,8.40
2023-04-02T02:02:13.147Z,7.93
2023-04-02T02:04:40.715Z,8.02
2023-04-02T02:07:14.727Z,8.65
2023-04-02T02:09:42.557Z,7.43
2023-04-02T02:12:13.790Z,8.82
2023-04-02T02:14:46.982Z,7.88
2023-04-02T02:17:19.844Z,7.88
2023-04-02T02:19:51.857Z,7.50
2023-04-02T02:22:29.734Z,7.80
2023-04-02T02:25:00.634Z,7.67
2023-04-02T02:27:27.330Z,6.25
2023-04-02T02:29:58.510Z,6.93
2023-04-02T02:32:31.027Z,6.63
2023-04-02T02:35:08.520Z,6.70
2023-04-02T02:37:43.434Z,7.32
2023-04-02T02:40:17.397Z,6.30
2023-04-02T02:42:51.254Z,7.15
2023-04-02T02:45:30.358Z,7.65
2023-04-02T02:47:59.011Z,6.38
2023-04-02T02:50:31.829Z,7.07
2023-04-02T02:53:02.908Z,7.50
2023-04-02T02:55:34.570Z,7.47
2023-04-02T02:58:07.009Z,8.55
2023-04-02T03:00:36.096Z,7.55
2023-04-02T03:03:08.030Z,8.13
2023-04-02T03:05:36.084Z,7.43
2023-04-02T03:08:06.967Z,7.07
2023-04-02T03:10:48.646Z,7.53
2023-04-02T03:13:21.931Z,7.35
2023-04-02T03:16:13.016Z,6.18
2023-04-02T03:19:17.027Z,7.88
2023-04-02T03:21:56.747Z,7.20
2023-04-02T03:24:39.759Z,8.23
2023-04-02T03:27:13.918Z,8.10
2023-04-02T03:29:46.468Z,8.45
2023-04-02T03:32:20.098Z,8.05
2023-04-02T03:34:49.630Z,7.97
2023-04-02T03:37:22.440Z,7.03
2023-04-02T03:40:02.001Z,7.85
2023-04-02T03:42:37.212Z,7.55
2023-04-02T03:45:28.722Z,7.22
2023-04-02T03:47:58.475Z,7.60
2023-04-02T03:50:31.333Z,6.28
2023-04-02T03:53:00.294Z,7.07
2023-04-02T03:55:30.556Z,7.05
2023-04-02T03:58:06.974Z,7.35
2023-04-02T04:00:55.056Z,6.75
2023-04-02T04:03:27.022Z,6.32
2023-04-02T04:06:00.294Z,6.25
2023-04-02T04:08:54.823Z,6.90
2023-04-02T04:11:30.898Z,6.55
2023-04-02T04:14:34.787Z,6.30
2023-04-02T04:17:30.076Z,6.70
2023-04-02T04:20:22.295Z,7.45
2023-04-02T04:22:50.572Z,6.57
2023-04-02T04:25:22.695Z,6.80
2023-04-02T04:27:58.326Z,6.70
2023-04-02T04:30:35.002Z,7.47
2023-04-02T04:33:15.378Z,6.10
2023-04-02T04:35:48.730Z,6.60
2023-04-02T04:38:39.560Z,6.07
2023-04-02T04:41:14.215Z,5.47
2023-04-02T04:43:46.420Z,5.88
2023-04-02T04:46:18.457Z,6.60
2023-04-02T04:49:06.777Z,7.13
2023-04-02T04:51:48.025Z,5.95
2023-04-02T04:54:16.118Z,5.82
2023-04-02T04:56:50.073Z,6.07
2023-04-02T04:59:50.227Z,5.55
2023-04-02T05:02:24.165Z,5.85
2023-04-02T05:04:52.887Z,6.05
2023-04-02T05:07:23.425Z,5.32
2023-04-02T05:09:55.903Z,6.28
2023-04-02T05:12:48.555Z,6.18
2023-04-02T05:15:42.167Z,7.63
2023-04-02T05:18:27.282Z,8.05
2023-04-02T05:21:02.073Z,8.30
2023-04-02T05:23:34.414Z,7.97
2023-04-02T05:26:12.052Z,9.27
2023-04-02T05:28:46.367Z,12.20
2023-04-02T05:31:31.313Z,11.95
2023-04-02T05:33:58.129Z,12.40
2023-04-02T05:36:27.912Z,11.57
2023-04-02T05:38:56.458Z,11.43
2023-04-02T05:41:36.855Z,11.45
2023-04-02T05:44:39.056Z,12.43
2023-04-02T05:47:12.472Z,13.77
2023-04-02T05:49:39.311Z,13.23
2023-04-02T05:52:12.092Z,14.20
2023-04-02T05:54:46.352Z,11.68
2023-04-02T05:57:19.361Z,12.93
2023-04-02T05:59:58.785Z,10.10
2023-04-02T06:02:33.151Z,12.90
2023-04-02T06:05:11.761Z,14.00
2023-04-02T06:07:59.530Z,14.73
2023-04-02T06:10:31.370Z,14.90
2023-04-02T06:13:08.687Z,13.68
2023-04-02T06:15:37.542Z,13.82
2023-04-02T06:20:43.274Z,12.05
2023-04-02T06:23:13.761Z,13.88
2023-04-02T06:25:46.831Z,13.07
2023-04-02T06:28:21.424Z,14.27
2023-04-02T06:30:49.246Z,14.65
2023-04-02T06:33:18.645Z,16.67
2023-04-02T06:35:48.731Z,19.42
2023-04-02T06:38:25.744Z,16.27
2023-04-02T06:40:59.965Z,13.38
2023-04-02T06:43:38.719Z,15.52
2023-04-02T06:48:37.924Z,12.65
2023-04-02T06:51:10.774Z,14.00
2023-04-02T06:53:41.850Z,10.65
2023-04-02T06:56:28.592Z,12.77
2023-04-02T06:58:55.565Z,10.48
2023-04-02T07:01:26.952Z,11.85
2023-04-02T07:03:54.570Z,12.18
2023-04-02T07:06:22.540Z,12.13
2023-04-02T07:08:49.765Z,12.38
2023-04-02T07:11:22.153Z,14.07
2023-04-02T07:13:50.162Z,12.50
2023-04-02T07:16:19.642Z,12.57
2023-04-02T07:18:49.929Z,13.38
2023-04-02T07:21:16.736Z,12.30
2023-04-02T07:23:43.493Z,10.27
2023-04-02T07:26:15.506Z,10.77
2023-04-02T07:28:42.812Z,10.77
2023-04-02T07:31:19.645Z,9.70
2023-04-02T07:33:46.604Z,10.43
2023-04-02T07:36:16.516Z,11.38
2023-04-02T07:38:48.296Z,12.98
2023-04-02T07:41:16.299Z,12.82
2023-04-02T07:43:43.639Z,12.63
2023-04-02T07:46:11.724Z,11.48
2023-04-02T07:48:38.472Z,12.75
2023-04-02T07:51:26.879Z,13.48
2023-04-02T07:53:57.556Z,12.90
2023-04-02T07:56:25.865Z,13.27
2023-04-02T07:58:53.282Z,12.65
2023-04-02T08:01:24.608Z,9.52
2023-04-02T08:03:55.614Z,11.20
2023-04-02T08:06:24.097Z,10.93
2023-04-02T08:08:50.767Z,9.73
2023-04-02T08:11:17.456Z,10.07
2023-04-02T08:13:44.086Z,10.68
2023-04-02T08:16:11.201Z,11.63
2023-04-02T08:18:37.996Z,9.15
2023-04-02T08:21:09.272Z,9.18
2023-04-02T08:23:36.264Z,8.90
2023-04-02T08:26:04.277Z,9.07
2023-04-02T08:28:31.182Z,6.37
2023-04-02T08:30:57.887Z,7.68
2023-04-02T08:33:24.688Z,7.68
2023-04-02T08:35:51.682Z,8.10
2023-04-02T08:38:21.652Z,7.30
2023-04-02T08:40:51.891Z,8.15
2023-04-02T08:43:41.990Z,7.72
2023-04-02T08:46:19.723Z,7.50
2023-04-02T08:48:55.347Z,6.53
2023-04-02T08:51:28.305Z,6.60
2023-04-02T08:54:00.426Z,5.88
2023-04-02T08:56:37.412Z,6.05
2023-04-02T08:59:12.880Z,5.55
2023-04-02T09:01:56.899Z,3.70
2023-04-02T09:04:25.613Z,3.30
2023-04-02T09:06:55.124Z,3.63
2023-04-02T09:09:23.475Z,4.38
2023-04-02T09:12:04.218Z,3.75
2023-04-02T09:14:42.994Z,4.25
2023-04-02T09:17:25.014Z,4.35
2023-04-02T09:20:13.635Z,5.22
2023-04-02T09:22:40.212Z,3.72
2023-04-02T09:25:14.907Z,5.53
2023-04-02T09:27:41.533Z,6.45
2023-04-02T09:30:25.390Z,6.28
2023-04-02T09:32:54.623Z,7.35
2023-04-02T09:35:27.028Z,6.28
2023-04-02T09:38:30.774Z,7.35
2023-04-02T09:41:01.688Z,8.00
2023-04-02T09:43:38.937Z,9.13
2023-04-02T09:46:21.819Z,7.80
2023-04-02T09:49:00.880Z,8.38
2023-04-02T09:51:36.691Z,8.57
2023-04-02T09:54:03.315Z,7.82
2023-04-02T09:56:35.490Z,7.75
2023-04-02T09:59:17.281Z,8.18
2023-04-02T10:01:56.627Z,8.00
2023-04-02T10:04:47.994Z,8.68
2023-04-02T10:07:31.501Z,8.88
2023-04-02T10:10:28.629Z,14.52
2023-04-02T10:13:01.522Z,9.60
2023-04-02T10:15:42.406Z,9.30
2023-04-02T10:18:21.670Z,8.52
2023-04-02T10:20:52.769Z,8.38
2023-04-02T10:23:19.829Z,9.27
2023-04-02T10:26:15.970Z,9.25
2023-04-02T10:28:57.702Z,8.40
2023-04-02T10:31:46.826Z,9.40
2023-04-02T10:34:23.460Z,8.00
2023-04-02T10:36:54.420Z,10.35
2023-04-02T10:39:46.051Z,7.57
2023-04-02T10:42:30.996Z,7.95
2023-04-02T10:45:04.829Z,7.60
2023-04-02T10:47:51.680Z,6.88
2023-04-02T10:50:32.445Z,5.90
2023-04-02T10:53:17.967Z,5.90
2023-04-02T10:55:51.006Z,6.35
2023-04-02T10:58:26.326Z,6.20
2023-04-02T11:01:06.957Z,6.70
2023-04-02T11:03:43.480Z,6.53
2023-04-02T11:06:21.246Z,7.28
2023-04-02T11:08:52.381Z,5.93
2023-04-02T11:11:23.635Z,4.90
2023-04-02T11:13:53.014Z,5.80
2023-04-02T11:16:20.003Z,6.10
2023-04-02T11:19:14.474Z,5.97
2023-04-02T11:21:55.050Z,6.78
2023-04-02T11:24:33.634Z,6.28
2023-04-02T11:27:26.198Z,6.93
2023-04-02T11:29:55.781Z,5.38
2023-04-02T11:32:24.066Z,4.85
2023-04-02T11:35:06.738Z,4.75
2023-04-02T11:37:33.974Z,4.65
2023-04-02T11:40:06.004Z,5.18
2023-04-02T11:42:46.570Z,2.97
2023-04-02T11:45:24.978Z,2.55
2023-04-02T11:48:06.095Z,2.47
2023-04-02T11:50:34.878Z,2.00
2023-04-02T11:53:05.538Z,1.98
2023-04-02T11:55:35.040Z,1.45
2023-04-02T11:58:04.876Z,1.33
2023-04-02T12:00:56.323Z,3.00
2023-04-02T12:03:37.283Z,1.20
2023-04-02T12:06:39.959Z,1.48
2023-04-02T12:09:30.182Z,1.10
2023-04-02T12:12:00.748Z,1.38
2023-04-02T12:14:36.583Z,1.50
2023-04-02T12:17:07.736Z,1.17
2023-04-02T12:19:36.506Z,1.15
2023-04-02T12:22:03.505Z,1.10
2023-04-02T12:24:31.494Z,1.00
2023-04-02T12:27:17.357Z,1.10
2023-04-02T12:29:44.275Z,0.93
2023-04-02T12:32:30.019Z,0.98
2023-04-02T12:35:04.636Z,1.10
2023-04-02T12:37:31.492Z,0.98
2023-04-02T12:40:16.077Z,1.35
2023-04-02T12:42:42.825Z,1.48
2023-04-02T12:45:29.690Z,1.70
2023-04-02T12:47:58.796Z,1.13
2023-04-02T12:50:26.117Z,1.27
2023-04-02T12:52:55.164Z,0.95
2023-04-02T12:55:27.136Z,0.80
2023-04-02T12:57:58.440Z,0.90
2023-04-02T13:00:25.345Z,0.77
2023-04-02T13:03:18.630Z,1.05
2023-04-02T13:05:57.022Z,1.02
2023-04-02T13:08:31.083Z,1.50
2023-04-02T13:11:03.007Z,1.05
2023-04-02T13:13:44.846Z,1.80
2023-04-02T13:16:17.793Z,1.17
2023-04-02T13:18:46.839Z,0.77
2023-04-02T13:21:16.365Z,1.02
2023-04-02T13:23:44.177Z,0.65
2023-04-02T13:26:13.680Z,1.33
2023-04-02T13:28:40.309Z,1.25
2023-04-02T13:31:14.684Z,0.82
2023-04-02T13:33:41.726Z,0.75
2023-04-02T13:36:14.319Z,0.90
2023-04-02T13:38:41.251Z,1.15
2023-04-02T13:41:28.805Z,0.95
2023-04-02T13:43:58.095Z,1.00
2023-04-02T13:46:27.941Z,0.95
2023-04-02T13:48:55.858Z,0.95
2023-04-02T13:51:26.385Z,1.02
2023-04-02T13:53:57.535Z,1.00
2023-04-02T13:56:25.148Z,1.35
2023-04-02T13:58:52.168Z,1.20
2023-04-02T14:01:22.884Z,0.70
2023-04-02T14:03:51.425Z,0.90
2023-04-02T14:08:59.196Z,3.72
2023-04-02T14:11:44.607Z,1.33
2023-04-02T14:14:29.140Z,1.38
2023-04-02T14:17:21.155Z,1.20
2023-04-02T14:20:16.338Z,1.00
2023-04-02T14:23:11.072Z,1.80
2023-04-02T14:26:07.738Z,1.20
2023-04-02T14:28:57.638Z,0.93
2023-04-02T14:31:38.790Z,0.70
2023-04-02T14:34:38.621Z,0.90
2023-04-02T14:37:23.173Z,0.80
2023-04-02T14:40:01.689Z,0.80
2023-04-02T14:42:33.304Z,0.63
2023-04-02T14:45:08.121Z,1.00
2023-04-02T14:47:45.200Z,0.73
2023-04-02T14:50:17.254Z,1.00
2023-04-02T14:52:51.545Z,1.00
2023-04-02T14:55:24.116Z,1.20
2023-04-02T14:57:53.866Z,1.10
2023-04-02T15:00:24.193Z,1.35
2023-04-02T15:02:57.943Z,1.27
2023-04-02T15:05:38.009Z,1.40
2023-04-02T15:08:16.028Z,1.48
2023-04-02T15:11:08.546Z,1.02
2023-04-02T15:13:44.360Z,1.30
2023-04-02T15:16:21.012Z,1.40
2023-04-02T15:18:52.397Z,1.00
2023-04-02T15:21:29.667Z,0.90
2023-04-02T15:24:24.434Z,1.60
2023-04-02T15:27:25.491Z,1.15
2023-04-02T15:30:14.906Z,1.35
2023-04-02T15:32:43.583Z,1.10
2023-04-02T15:35:45.595Z,0.98
2023-04-02T15:38:21.617Z,1.42
2023-04-02T15:40:59.290Z,1.00
2023-04-02T15:44:06.147Z,1.83
2023-04-02T15:46:55.948Z,1.10
2023-04-02T15:49:45.876Z,1.40
2023-04-02T15:52:34.964Z,1.73
2023-04-02T15:55:37.501Z,0.77
2023-04-02T15:58:41.853Z,1.10
2023-04-02T16:01:30.203Z,1.15
2023-04-02T16:07:31.625Z,1.08
2023-04-02T16:10:01.265Z,1.08
2023-04-02T16:12:30.904Z,1.33
2023-04-02T16:15:13.978Z,1.42
2023-04-02T16:17:50.031Z,1.50
2023-04-02T16:20:28.574Z,1.33
2023-04-02T16:25:35.212Z,1.30
2023-04-02T16:28:17.856Z,2.10
2023-04-02T16:30:48.614Z,2.00
2023-04-02T16:33:27.342Z,1.50
2023-04-02T16:35:53.918Z,1.85
2023-04-02T16:38:48.320Z,1.75
2023-04-02T16:41:50.628Z,1.05
2023-04-02T16:44:28.835Z,2.00
2023-04-02T16:47:18.357Z,2.60
2023-04-02T16:49:57.031Z,3.58
2023-04-02T16:52:23.573Z,2.17
2023-04-02T16:55:27.702Z,1.80
2023-04-02T16:58:14.150Z,1.50
2023-04-02T17:01:18.927Z,2.30
2023-04-02T17:03:59.312Z,1.92
2023-04-02T17:06:43.834Z,1.27
2023-04-02T17:09:15.547Z,1.17
2023-04-02T17:12:10.690Z,1.92
2023-04-02T17:15:02.449Z,1.33
2023-04-02T17:17:30.469Z,1.75
2023-04-02T17:20:00.733Z,2.05
2023-04-02T17:22:31.539Z,1.75
2023-04-02T17:25:01.604Z,1.83
2023-04-02T17:27:41.398Z,1.90
2023-04-02T17:30:17.597Z,2.10
2023-04-02T17:32:44.262Z,1.95
2023-04-02T17:35:42.543Z,2.20
2023-04-02T17:38:34.908Z,2.17
2023-04-02T17:41:11.920Z,2.03
2023-04-02T17:43:55.996Z,1.95
2023-04-02T17:46:26.085Z,1.80
2023-04-02T17:49:02.612Z,2.40
2023-04-02T17:51:55.328Z,2.58
2023-04-02T17:55:01.979Z,2.65
2023-04-02T17:57:45.587Z,2.95
2023-04-02T18:00:21.166Z,3.35
2023-04-02T18:03:10.504Z,4.13
2023-04-02T18:05:48.408Z,4.53
2023-04-02T18:08:15.871Z,3.67
2023-04-02T18:11:03.964Z,3.90
2023-04-02T18:13:57.745Z,5.13
2023-04-02T18:16:42.795Z,5.60
2023-04-02T18:19:31.225Z,4.80
2023-04-02T18:22:07.915Z,5.18
2023-04-02T18:25:14.946Z,4.93
2023-04-02T18:27:56.812Z,5.28
2023-04-02T18:30:33.347Z,5.95
2023-04-02T18:32:59.984Z,6.60
2023-04-02T18:35:48.259Z,6.75
2023-04-02T18:38:31.606Z,6.88
2023-04-02T18:41:13.193Z,5.95
2023-04-02T18:43:51.421Z,7.38
2023-04-02T18:46:36.972Z,6.65
2023-04-02T18:49:22.821Z,7.00
2023-04-02T18:52:00.400Z,6.57
2023-04-02T18:54:34.202Z,6.40
2023-04-02T18:57:12.362Z,5.80
2023-04-02T18:59:51.099Z,7.30
2023-04-02T19:02:41.495Z,7.28
2023-04-02T19:05:37.003Z,6.55
2023-04-02T19:08:16.515Z,6.50
2023-04-02T19:10:51.370Z,5.82
2023-04-02T19:13:19.743Z,5.88
2023-04-02T19:16:05.170Z,6.00
2023-04-02T19:19:05.633Z,5.25
2023-04-02T19:21:34.827Z,6.15
2023-04-02T19:24:11.234Z,5.95
2023-04-02T19:27:06.901Z,5.53
2023-04-02T19:29:36.230Z,5.05
2023-04-02T19:32:14.933Z,5.53
2023-04-02T19:37:41.429Z,3.80
2023-04-02T19:40:08.641Z,3.88
2023-04-02T19:42:52.219Z,4.05
2023-04-02T19:45:42.044Z,3.20
2023-04-02T19:48:31.072Z,3.67
2023-04-02T19:50:58.054Z,3.75
2023-04-02T19:53:24.630Z,3.22
2023-04-02T19:55:51.404Z,3.40
2023-04-02T19:58:30.181Z,3.35
2023-04-02T20:03:24.528Z,4.35
2023-04-02T20:05:52.105Z,3.90
2023-04-02T20:08:19.082Z,4.85
2023-04-02T20:10:46.350Z,4.90
2023-04-02T20:13:13.079Z,4.38
2023-04-02T20:15:41.385Z,3.70
2023-04-02T20:18:09.403Z,3.03
2023-04-02T20:20:37.565Z,4.10
2023-04-02T20:23:04.678Z,4.30
2023-04-02T20:25:32.056Z,3.85
2023-04-02T20:28:00.836Z,3.88
2023-04-02T20:32:55.745Z,2.53
2023-04-02T20:35:22.583Z,2.45
2023-04-02T20:37:49.184Z,2.00
2023-04-02T20:40:16.010Z,2.58
2023-04-02T20:42:42.629Z,4.05
2023-04-02T20:45:09.931Z,2.58
2023-04-02T20:47:36.661Z,1.80
2023-04-02T20:50:03.428Z,1.88
2023-04-02T20:52:30.400Z,1.83
2023-04-02T20:54:57.470Z,2.47
2023-04-02T20:57:26.181Z,2.42
2023-04-02T20:59:53.122Z,2.28
2023-04-02T21:02:19.710Z,2.15
2023-04-02T21:04:46.367Z,2.65
2023-04-02T21:07:12.952Z,2.35
2023-04-02T21:09:39.514Z,1.85
2023-04-02T21:12:06.621Z,1.92
2023-04-02T21:14:37.779Z,1.88
2023-04-02T21:17:06.786Z,1.50
2023-04-02T21:19:34.540Z,2.22
2023-04-02T21:22:01.445Z,2.45
2023-04-02T21:24:28.099Z,2.30
2023-04-02T21:26:54.894Z,1.98
2023-04-02T21:29:21.476Z,1.65
2023-04-02T21:31:48.237Z,2.05
2023-04-02T21:34:17.018Z,2.15
2023-04-02T21:36:46.105Z,1.98
2023-04-02T21:39:18.205Z,2.30
2023-04-02T21:41:47.259Z,2.40
2023-04-02T21:44:15.425Z,2.97
2023-04-02T21:46:42.836Z,2.47
2023-04-02T21:49:11.803Z,1.75
2023-04-02T21:51:40.913Z,2.88
2023-04-02T21:54:08.067Z,2.33
2023-04-02T21:56:40.457Z,2.13
2023-04-02T21:59:09.039Z,3.88
2023-04-02T22:01:42.746Z,2.55
2023-04-02T22:04:11.723Z,2.90
2023-04-02T22:06:40.710Z,3.20
2023-04-02T22:14:05.889Z,3.03
2023-04-02T22:16:34.780Z,2.77
2023-04-02T22:21:30.770Z,2.53
2023-04-02T22:24:01.670Z,3.50
2023-04-02T22:26:28.511Z,2.50
2023-04-02T22:28:55.343Z,2.97
2023-04-02T22:31:24.936Z,3.08
2023-04-02T22:33:53.889Z,2.50
2023-04-02T22:36:22.454Z,2.80
2023-04-02T22:38:49.481Z,2.85
2023-04-02T22:41:27.638Z,2.95
2023-04-02T22:43:56.667Z,2.92
2023-04-02T22:46:25.567Z,3.92
2023-04-02T22:51:21.118Z,2.50
2023-04-02T22:53:48.627Z,1.90
2023-04-02T22:56:18.501Z,2.00
2023-04-02T22:58:45.610Z,1.48
2023-04-02T23:01:15.955Z,1.63
2023-04-02T23:03:43.145Z,1.63
2023-04-02T23:06:17.072Z,1.95
2023-04-02T23:08:44.145Z,2.13
2023-04-02T23:11:13.386Z,2.53
2023-04-02T23:13:40.885Z,2.42
2023-04-02T23:16:11.186Z,2.10
2023-04-02T23:18:39.371Z,1.45
2023-04-02T23:21:06.710Z,2.13
2023-04-02T23:23:34.043Z,2.35
2023-04-02T23:26:08.189Z,1.83
2023-04-02T23:28:36.087Z,2.13
2023-04-02T23:31:04.705Z,2.72
2023-04-02T23:33:31.750Z,2.13
2023-04-02T23:35:58.694Z,1.70
2023-04-02T23:38:26.715Z,1.38
2023-04-02T23:40:53.685Z,1.45
2023-04-02T23:43:20.478Z,1.30
2023-04-02T23:45:48.814Z,0.90
2023-04-02T23:48:16.534Z,1.10
2023-04-02T23:50:46.457Z,1.20
2023-04-02T23:53:13.571Z,0.93
2023-04-02T23:55:40.593Z,1.42
2023-04-02T23:58:07.342Z,1.40
